Meteorología y climatología de Navarra
Datos de la estación - Meteo Navarra

Estación de Pamplona GN

Altitud 455 m.


Datos desde el 23/05/2020 hasta el 24/05/2020 en horario solar
Los datos son PROVISIONALES

Anterior Página 1 de 1 Siguiente Descargar: Formato para Excel 2000 o superior   Formato csv   Formato para OpenOffice Calc
Fecha Temperatura Humedad relativa Radiación global Insolación Precipitación Vel. viento 10 m Vel. viento 10 m Dir. viento 10 m
ºC % W/m² s l/m² m/s km/h º
23/05/2020 0:00 16.3 82 0.0 0 0.0 0.5 1.8 45
23/05/2020 0:10 16.2 82 0.0 0 0.0 1.0 3.6 32
23/05/2020 0:20 16.2 82 0.0 0 0.0 1.3 4.5 40
23/05/2020 0:30 16.1 83 0.0 0 0.0 1.7 6.3 17
23/05/2020 0:40 16.2 82 0.0 0 0.0 1.3 4.6 348
23/05/2020 0:50 16.3 82 0.0 0 0.0 2.2 8.0 333
23/05/2020 1:00 16.4 81 0.0 0 0.0 2.0 7.2 323
23/05/2020 1:10 16.3 81 0.0 0 0.0 1.1 4.0 330
23/05/2020 1:20 16.3 81 0.0 0 0.0 1.6 5.7 319
23/05/2020 1:30 16.3 81 0.0 0 0.0 1.5 5.2 296
23/05/2020 1:40 16.3 81 0.0 0 0.0 2.8 10.0 327
23/05/2020 1:50 16.2 81 0.0 0 0.0 1.9 6.8 317
23/05/2020 2:00 16.3 81 0.0 0 0.0 1.7 6.3 319
23/05/2020 2:10 16.3 80 0.0 0 0.0 1.4 5.1 281
23/05/2020 2:20 16.3 80 0.0 0 0.0 0.6 2.2 253
23/05/2020 2:30 16.4 80 0.0 0 0.0 0.7 2.6 269
23/05/2020 2:40 16.2 80 0.0 0 0.0 0.4 1.3 326
23/05/2020 2:50 16.2 80 0.0 0 0.0 0.5 1.9 305
23/05/2020 3:00 16.3 79 0.0 0 0.0 0.9 3.2 293
23/05/2020 3:10 16.3 80 0.0 0 0.0 0.1 0.5 341
23/05/2020 3:20 16.3 79 0.0 0 0.0 0.7 2.6 321
23/05/2020 3:30 16.3 79 0.0 0 0.0 1.6 5.6 273
23/05/2020 3:40 16.4 79 0.0 0 0.0 1.0 3.7 287
23/05/2020 3:50 16.3 79 0.0 0 0.0 0.7 2.3 299
23/05/2020 4:00 16.2 79 0.0 0 0.0 0.3 1.0 324
23/05/2020 4:10 16.2 80 0.0 0 0.0 0.2 0.9 306
23/05/2020 4:20 16.3 80 0.0 0 0.0 0.2 0.8 270
23/05/2020 4:30 16.2 81 0.0 0 0.0 0.4 1.5 332
23/05/2020 4:40 16.2 80 0.0 0 0.0 0.3 1.0 290
23/05/2020 4:50 16.3 80 0.0 0 0.0 0.1 0.5 313
23/05/2020 5:00 16.3 80 0.0 0 0.0 0.4 1.6 326
23/05/2020 5:10 16.2 80 19.3 0 0.0 0.8 2.9 328
23/05/2020 5:20 16.3 79 53.2 290 0.0 0.9 3.2 354
23/05/2020 5:30 16.5 78 73.0 380 0.0 1.4 5.1 1
23/05/2020 5:40 16.6 78 54.7 14 0.0 1.4 4.9 7
23/05/2020 5:50 16.6 78 91.6 156 0.0 1.3 4.7 11
23/05/2020 6:00 16.6 77 91.9 100 0.0 2.1 7.5 6
23/05/2020 6:10 16.8 76 186.9 476 0.0 1.9 6.7 16
23/05/2020 6:20 17.3 74 253.4 600 0.0 1.6 5.7 350
23/05/2020 6:30 17.5 73 309.2 600 0.0 2.1 7.6 0
23/05/2020 6:40 18.0 71 261.2 388 0.0 1.3 4.6 330
23/05/2020 6:50 17.9 72 117.1 0 0.0 1.0 3.7 0
23/05/2020 7:00 17.6 73 152.5 0 0.0 1.3 4.6 1
23/05/2020 7:10 17.9 72 283.1 384 0.0 1.2 4.4 355
23/05/2020 7:20 17.7 73 216.9 0 0.0 3.3 11.9 4
23/05/2020 7:30 17.4 74 194.4 0 0.0 4.4 15.9 356
23/05/2020 7:40 17.4 74 205.6 0 0.0 3.5 12.5 348
23/05/2020 7:50 17.7 72 224.4 0 0.0 2.8 10.0 328
23/05/2020 8:00 17.9 72 212.4 0 0.0 1.8 6.6 323
23/05/2020 8:10 17.9 72 220.8 0 0.0 2.3 8.2 305
23/05/2020 8:20 18.1 71 221.8 0 0.0 2.8 10.2 304
23/05/2020 8:30 18.1 72 289.8 0 0.0 2.2 7.9 326
23/05/2020 8:40 18.2 71 251.0 0 0.0 2.7 9.7 318
23/05/2020 8:50 18.4 71 398.8 344 0.0 2.2 7.8 313
23/05/2020 9:00 18.5 70 326.0 86 0.0 2.8 10.2 305
23/05/2020 9:10 18.4 70 237.9 0 0.0 3.3 12.0 298
23/05/2020 9:20 18.1 71 225.4 0 0.0 3.9 13.9 289
23/05/2020 9:30 17.9 70 210.1 0 0.0 3.6 12.9 298
23/05/2020 9:40 17.7 70 191.6 0 0.0 2.8 10.2 315
23/05/2020 9:50 17.2 70 186.1 0 0.0 3.8 13.8 345
23/05/2020 10:00 17.0 71 213.0 0 0.0 3.4 12.2 347
23/05/2020 10:10 16.9 70 265.4 0 0.0 3.9 14.0 337
23/05/2020 10:20 16.7 70 334.9 0 0.0 3.5 12.5 325
23/05/2020 10:30 16.9 70 443.0 144 0.0 3.6 13.1 326
23/05/2020 10:40 17.2 68 408.9 74 0.0 2.2 7.8 321
23/05/2020 10:50 17.2 68 380.5 0 0.0 3.6 13.0 340
23/05/2020 11:00 17.1 67 395.9 0 0.0 3.0 10.7 331
23/05/2020 11:10 17.1 68 313.6 0 0.0 3.0 10.9 336
23/05/2020 11:20 16.6 68 358.2 0 0.0 4.8 17.3 333
23/05/2020 11:30 16.4 69 418.1 24 0.0 4.7 16.9 327
23/05/2020 11:40 16.5 68 395.4 8 0.0 4.6 16.6 306
23/05/2020 11:50 16.5 68 530.8 282 0.0 3.6 12.9 331
23/05/2020 12:00 17.1 66 705.9 600 0.0 3.7 13.4 323
23/05/2020 12:10 17.2 65 597.3 442 0.0 3.0 10.8 329
23/05/2020 12:20 17.1 65 503.5 134 0.0 3.1 11.2 333
23/05/2020 12:30 17.0 65 461.9 108 0.0 2.1 7.5 338
23/05/2020 12:40 17.0 65 408.7 0 0.0 1.7 6.1 320
23/05/2020 12:50 17.1 64 395.5 0 0.0 3.4 12.2 341
23/05/2020 13:00 17.2 64 434.9 24 0.0 2.4 8.7 336
23/05/2020 13:10 17.5 64 474.9 120 0.0 2.7 9.8 344
23/05/2020 13:20 17.4 64 620.5 428 0.0 3.0 10.7 23
23/05/2020 13:30 17.9 63 329.7 64 0.0 2.2 7.7 305
23/05/2020 13:40 17.1 65 299.8 0 0.0 3.0 10.7 344
23/05/2020 13:50 16.9 66 322.5 0 0.0 2.7 9.8 329
23/05/2020 14:00 16.3 68 360.6 28 0.0 3.0 10.8 337
23/05/2020 14:10 15.9 69 359.5 6 0.0 3.5 12.4 337
23/05/2020 14:20 15.5 70 353.1 0 0.0 3.0 10.8 334
23/05/2020 14:30 15.4 69 288.7 0 0.0 2.7 9.8 329
23/05/2020 14:40 15.3 69 251.0 30 0.0 3.5 12.5 343
23/05/2020 14:50 15.5 68 535.5 312 0.0 3.1 11.2 351
23/05/2020 15:00 15.8 67 253.0 54 0.0 3.0 10.8 343
23/05/2020 15:10 15.6 68 368.0 182 0.0 4.1 14.7 340
23/05/2020 15:20 16.0 67 598.3 434 0.0 3.6 13.1 5
23/05/2020 15:30 16.2 66 632.7 466 0.0 4.2 15.0 351
23/05/2020 15:40 16.6 65 724.0 600 0.0 2.6 9.4 345
23/05/2020 15:50 16.5 64 656.5 584 0.0 2.4 8.6 18
23/05/2020 16:00 16.6 64 684.0 598 0.0 2.6 9.3 357
23/05/2020 16:10 16.7 64 397.1 308 0.0 2.6 9.3 334
23/05/2020 16:20 16.0 65 248.9 90 0.0 3.2 11.6 340
23/05/2020 16:30 16.0 65 399.6 302 0.0 3.8 13.6 355
23/05/2020 16:40 16.0 66 418.7 460 0.0 2.8 10.2 2
23/05/2020 16:50 16.0 66 102.8 0 0.0 2.9 10.4 354
23/05/2020 17:00 15.5 67 105.9 0 0.0 3.3 12.0 341
23/05/2020 17:10 15.3 68 140.6 0 0.0 3.8 13.5 346
23/05/2020 17:20 15.3 68 148.2 0 0.0 3.3 11.7 356
23/05/2020 17:30 15.4 68 154.1 8 0.0 2.5 9.1 339
23/05/2020 17:40 15.4 68 214.2 284 0.0 3.6 13.0 359
23/05/2020 17:50 15.2 69 147.7 52 0.0 3.2 11.6 355
23/05/2020 18:00 15.2 70 93.9 0 0.0 2.4 8.5 348
23/05/2020 18:10 14.9 71 52.6 0 0.0 2.4 8.8 357
23/05/2020 18:20 14.8 72 35.3 0 0.0 2.4 8.6 359
23/05/2020 18:30 14.5 73 35.9 0 0.0 3.8 13.5 324
23/05/2020 18:40 14.3 74 26.7 0 0.0 3.1 11.2 329
23/05/2020 18:50 14.3 74 21.2 0 0.0 2.6 9.3 332
23/05/2020 19:00 14.2 74 9.9 0 0.0 2.9 10.3 307
23/05/2020 19:10 14.1 74 0.0 0 0.0 3.1 11.0 330
23/05/2020 19:20 14.0 75 0.0 0 0.0 3.4 12.2 323
23/05/2020 19:30 13.8 76 0.0 0 0.0 3.8 13.5 315
23/05/2020 19:40 13.6 77 0.0 0 0.0 2.4 8.5 331
23/05/2020 19:50 13.4 77 0.0 0 0.0 2.7 9.8 313
23/05/2020 20:00 13.5 77 0.0 0 0.0 2.2 7.7 343
23/05/2020 20:10 13.5 77 0.0 0 0.0 2.6 9.5 329
23/05/2020 20:20 13.5 77 0.0 0 0.0 3.0 10.8 327
23/05/2020 20:30 13.4 78 0.0 0 0.0 3.5 12.7 324
23/05/2020 20:40 13.4 78 0.0 0 0.0 2.8 10.1 316
23/05/2020 20:50 13.3 78 0.0 0 0.0 3.1 11.1 320
23/05/2020 21:00 13.2 78 0.0 0 0.0 1.9 6.8 325
23/05/2020 21:10 13.2 78 0.0 0 0.0 2.1 7.5 320
23/05/2020 21:20 13.2 77 0.0 0 0.0 2.4 8.8 306
23/05/2020 21:30 13.3 76 0.0 0 0.0 1.9 6.8 326
23/05/2020 21:40 13.4 76 0.0 0 0.0 1.9 6.9 314
23/05/2020 21:50 13.4 75 0.0 0 0.0 2.4 8.6 299
23/05/2020 22:00 13.4 75 0.0 0 0.0 2.5 9.1 310
23/05/2020 22:10 13.5 74 0.0 0 0.0 2.0 7.1 308
23/05/2020 22:20 13.4 74 0.0 0 0.0 1.9 7.0 307
23/05/2020 22:30 13.4 74 0.0 0 0.0 2.1 7.7 309
23/05/2020 22:40 13.4 74 0.0 0 0.0 2.5 9.0 298
23/05/2020 22:50 13.4 74 0.0 0 0.0 3.2 11.4 302
23/05/2020 23:00 13.3 74 0.0 0 0.0 2.9 10.3 295
23/05/2020 23:10 13.3 75 0.0 0 0.0 2.4 8.6 292
23/05/2020 23:20 13.3 75 0.0 0 0.0 2.4 8.6 306
23/05/2020 23:30 13.3 75 0.0 0 0.0 2.0 7.3 307
23/05/2020 23:40 13.2 75 0.0 0 0.0 2.5 9.1 300
23/05/2020 23:50 13.2 75 0.0 0 0.0 1.6 5.7 306
Anterior Página 1 de 1 Siguiente

NOTA: Tipo de datos según el color:
   - Valores diarios o 10 minutos correctos
   - Valores diarios calculados a partir de un número de datos 10 minutos menor que 144 y mayor que 120, o de un número de datos semihorarios menor que 48 y mayor que 40 (caso de las estaciones de INTIA y del Ministerio)
   - Valores diez minutos estimados


Contacto        Enlaces        Aviso legal